Time;durP1;ratioP1;P1;durP2;ratioP2;P2;SDS_P1;SDS_P2;PMS_P1;PMS_P2;Temp;Humidity;BMP_temperature;BMP_pressure;BME280_temperature;BME280_humidity;BME280_pressure;Samples;Min_cycle;Max_cycle;Signal;HPM_P1;HPM_P2
2022/01/06 00:01:39;;;;;;;11.90;3.13;;;;;;;;;;4994984;28;20474;-78
2022/01/06 00:04:05;;;;;;;14.20;3.50;;;;;;;;;;5003846;28;20042;-78
2022/01/06 00:06:36;;;;;;;19.05;4.10;;;;;;;;;;4970019;28;20051;-76
2022/01/06 00:09:03;;;;;;;12.75;3.60;;;;;;;;;;4977985;28;20144;-76
2022/01/06 00:11:29;;;;;;;14.13;3.33;;;;;;;;;;4981346;28;20929;-76
2022/01/06 00:17:36;;;;;;;15.65;4.07;;;;;;;;;;4976449;28;20059;-76
2022/01/06 00:24:49;;;;;;;9.88;3.05;;;;;;;;;;5010885;28;20065;-77
2022/01/06 00:27:15;;;;;;;17.42;3.38;;;;;;;;;;5006665;28;20112;-78
2022/01/06 00:29:42;;;;;;;12.25;3.60;;;;;;;;;;4994807;28;20061;-75
2022/01/06 00:32:08;;;;;;;19.17;4.45;;;;;;;;;;4961142;28;20060;-78
2022/01/06 00:34:34;;;;;;;14.45;3.17;;;;;;;;;;4960904;28;20046;-77
2022/01/06 00:37:01;;;;;;;12.18;3.15;;;;;;;;;;4976961;28;20058;-77
2022/01/06 00:39:28;;;;;;;14.50;3.33;;;;;;;;;;5011104;28;20057;-76
2022/01/06 00:42:00;;;;;;;13.50;3.30;;;;;;;;;;4994289;28;20042;-76
2022/01/06 00:44:26;;;;;;;13.90;3.20;;;;;;;;;;4984628;28;20177;-76
2022/01/06 00:46:52;;;;;;;15.85;3.83;;;;;;;;;;4962577;28;20057;-76
2022/01/06 00:49:22;;;;;;;14.48;3.72;;;;;;;;;;4994527;28;20030;-75
2022/01/06 00:51:48;;;;;;;11.38;3.17;;;;;;;;;;4976444;28;20485;-76
2022/01/06 00:54:14;;;;;;;16.40;4.80;;;;;;;;;;4977276;28;20180;-76
2022/01/06 00:56:40;;;;;;;14.55;3.50;;;;;;;;;;4953088;28;20418;-78
2022/01/06 00:59:06;;;;;;;15.88;3.70;;;;;;;;;;4994364;28;20105;-76
2022/01/06 01:01:32;;;;;;;13.82;3.53;;;;;;;;;;4977888;28;20053;-77
2022/01/06 01:03:59;;;;;;;16.23;3.92;;;;;;;;;;4977396;28;20038;-77
2022/01/06 01:06:25;;;;;;;17.65;3.78;;;;;;;;;;4994652;28;20058;-75
2022/01/06 01:08:51;;;;;;;12.48;3.08;;;;;;;;;;4976896;28;20039;-77
2022/01/06 01:11:17;;;;;;;15.40;3.92;;;;;;;;;;4993749;28;20045;-78
2022/01/06 01:13:56;;;;;;;17.02;4.28;;;;;;;;;;4994682;28;20046;-77
2022/01/06 01:16:30;;;;;;;15.40;3.92;;;;;;;;;;4960592;28;20469;-79
2022/01/06 01:18:57;;;;;;;11.43;2.97;;;;;;;;;;4977514;28;20053;-77
2022/01/06 01:21:26;;;;;;;11.77;2.80;;;;;;;;;;4976747;28;20074;-77
2022/01/06 01:23:53;;;;;;;12.65;3.08;;;;;;;;;;4976662;28;20442;-75
2022/01/06 01:26:19;;;;;;;13.98;3.53;;;;;;;;;;4976654;28;20457;-77
2022/01/06 01:28:46;;;;;;;19.88;5.00;;;;;;;;;;4976925;28;20050;-77
2022/01/06 01:33:46;;;;;;;14.77;3.55;;;;;;;;;;4976989;28;20415;-76
2022/01/06 01:36:12;;;;;;;14.80;3.30;;;;;;;;;;4960700;28;20068;-77
2022/01/06 01:38:39;;;;;;;13.52;3.50;;;;;;;;;;4977476;28;20543;-76
2022/01/06 01:41:06;;;;;;;14.57;3.22;;;;;;;;;;4977019;28;20100;-77
2022/01/06 01:43:32;;;;;;;13.85;3.25;;;;;;;;;;4991588;28;20356;-77
2022/01/06 01:46:07;;;;;;;11.40;2.92;;;;;;;;;;4992422;28;20034;-76
2022/01/06 01:48:36;;;;;;;9.40;2.83;;;;;;;;;;5009139;28;20120;-78
2022/01/06 01:51:02;;;;;;;12.38;3.80;;;;;;;;;;4977488;28;20054;-77
2022/01/06 01:53:28;;;;;;;10.50;3.53;;;;;;;;;;4975436;28;20418;-76
2022/01/06 01:55:54;;;;;;;10.95;4.03;;;;;;;;;;4975810;28;20072;-75
2022/01/06 01:58:20;;;;;;;12.80;2.88;;;;;;;;;;5002285;28;20055;-77
2022/01/06 02:00:46;;;;;;;12.57;2.95;;;;;;;;;;4976099;28;21242;-76
2022/01/06 02:03:13;;;;;;;14.40;3.03;;;;;;;;;;4976231;28;20061;-75
2022/01/06 02:05:39;;;;;;;14.95;3.00;;;;;;;;;;4960597;28;20085;-75
2022/01/06 02:08:05;;;;;;;10.48;3.15;;;;;;;;;;4976752;28;20108;-76
2022/01/06 02:10:32;;;;;;;13.80;3.60;;;;;;;;;;4958345;28;20050;-77
2022/01/06 02:13:00;;;;;;;15.15;3.63;;;;;;;;;;4962915;28;20089;-78
2022/01/06 02:15:27;;;;;;;16.20;3.78;;;;;;;;;;4986349;28;20120;-76
2022/01/06 02:17:53;;;;;;;17.45;3.90;;;;;;;;;;4977029;28;20458;-77
2022/01/06 02:20:20;;;;;;;16.40;3.60;;;;;;;;;;4974646;28;20062;-75
2022/01/06 02:22:46;;;;;;;18.08;3.33;;;;;;;;;;4972942;28;20046;-75
2022/01/06 02:25:14;;;;;;;15.15;3.40;;;;;;;;;;4970912;28;20058;-75
2022/01/06 02:27:41;;;;;;;16.75;4.07;;;;;;;;;;4974107;28;20079;-78
2022/01/06 02:30:07;;;;;;;8.27;2.70;;;;;;;;;;4969880;28;20130;-76
2022/01/06 02:32:33;;;;;;;10.23;2.80;;;;;;;;;;4990234;28;20434;-76
2022/01/06 02:35:03;;;;;;;8.40;2.90;;;;;;;;;;4976116;28;20066;-77
2022/01/06 02:37:29;;;;;;;11.23;3.13;;;;;;;;;;4997849;28;20050;-77
2022/01/06 02:39:55;;;;;;;13.45;3.85;;;;;;;;;;4958629;28;20073;-76
2022/01/06 02:42:22;;;;;;;16.80;3.67;;;;;;;;;;4976682;28;20069;-77
2022/01/06 02:44:48;;;;;;;13.82;3.10;;;;;;;;;;4971204;28;20174;-75
2022/01/06 02:47:14;;;;;;;16.73;2.80;;;;;;;;;;4975524;28;20050;-77
2022/01/06 02:49:40;;;;;;;16.50;4.00;;;;;;;;;;4992779;28;20050;-78
2022/01/06 02:52:06;;;;;;;17.15;3.70;;;;;;;;;;4973198;28;20058;-77
2022/01/06 02:54:32;;;;;;;12.07;3.17;;;;;;;;;;4975936;28;20054;-75
2022/01/06 02:56:58;;;;;;;16.48;4.20;;;;;;;;;;4978418;28;20042;-75
2022/01/06 02:59:25;;;;;;;16.20;3.45;;;;;;;;;;4984919;28;20057;-77
2022/01/06 03:01:51;;;;;;;13.80;3.40;;;;;;;;;;4985856;28;20474;-75
2022/01/06 03:04:17;;;;;;;13.95;3.67;;;;;;;;;;4980313;28;20034;-77
2022/01/06 03:06:43;;;;;;;12.00;3.20;;;;;;;;;;4978933;28;20418;-76
2022/01/06 03:09:09;;;;;;;13.98;3.70;;;;;;;;;;4980168;28;20459;-77
2022/01/06 03:11:40;;;;;;;13.75;3.30;;;;;;;;;;4962947;28;20057;-76
2022/01/06 03:14:06;;;;;;;16.45;3.50;;;;;;;;;;4979721;28;20065;-76
2022/01/06 03:16:33;;;;;;;15.05;3.78;;;;;;;;;;4978990;28;20113;-75
2022/01/06 03:18:59;;;;;;;15.02;3.58;;;;;;;;;;4996404;28;20455;-76
2022/01/06 03:21:25;;;;;;;17.90;3.65;;;;;;;;;;4978001;28;20042;-76
2022/01/06 03:23:51;;;;;;;16.15;3.60;;;;;;;;;;4978475;28;20481;-77
2022/01/06 03:26:17;;;;;;;15.65;3.40;;;;;;;;;;4977093;28;20481;-76
2022/01/06 03:28:43;;;;;;;17.13;4.15;;;;;;;;;;4947646;28;20058;-75
2022/01/06 03:31:09;;;;;;;11.90;4.07;;;;;;;;;;4961328;28;20050;-77
2022/01/06 03:33:35;;;;;;;14.93;3.30;;;;;;;;;;4980026;28;20061;-75
2022/01/06 03:36:01;;;;;;;22.85;4.22;;;;;;;;;;5010200;28;20050;-76
2022/01/06 03:38:27;;;;;;;13.07;4.13;;;;;;;;;;4978368;28;20061;-75
2022/01/06 03:40:53;;;;;;;16.73;3.85;;;;;;;;;;4977458;28;20112;-76
2022/01/06 03:43:20;;;;;;;18.70;4.50;;;;;;;;;;4961646;28;20046;-76
2022/01/06 03:45:46;;;;;;;19.33;5.22;;;;;;;;;;4975804;28;20042;-75
2022/01/06 03:48:12;;;;;;;17.92;3.72;;;;;;;;;;4977138;28;20712;-77
2022/01/06 03:50:38;;;;;;;22.65;4.45;;;;;;;;;;4994598;28;20046;-77
2022/01/06 03:53:04;;;;;;;18.05;3.78;;;;;;;;;;4993343;28;20057;-76
2022/01/06 03:55:30;;;;;;;16.83;3.45;;;;;;;;;;4974989;28;20042;-77
2022/01/06 03:57:56;;;;;;;16.98;3.83;;;;;;;;;;4976922;28;20057;-75
2022/01/06 04:00:22;;;;;;;16.42;4.55;;;;;;;;;;4960077;28;20050;-75
2022/01/06 04:02:48;;;;;;;15.15;3.63;;;;;;;;;;4977717;28;20475;-77
2022/01/06 04:05:15;;;;;;;19.52;3.85;;;;;;;;;;4994523;28;20038;-78
2022/01/06 04:07:42;;;;;;;17.38;3.60;;;;;;;;;;4977684;28;20050;-76
2022/01/06 04:10:09;;;;;;;15.60;4.45;;;;;;;;;;4977196;28;20057;-75
2022/01/06 04:12:36;;;;;;;14.35;3.40;;;;;;;;;;4978156;28;20054;-75
2022/01/06 04:15:09;;;;;;;17.67;3.65;;;;;;;;;;4996367;28;20042;-75
2022/01/06 04:17:35;;;;;;;13.95;3.95;;;;;;;;;;5006686;28;20064;-75
2022/01/06 04:20:01;;;;;;;16.33;3.63;;;;;;;;;;4959345;28;20050;-76
2022/01/06 04:22:27;;;;;;;16.33;3.10;;;;;;;;;;4969271;28;20061;-77
2022/01/06 04:24:53;;;;;;;14.57;4.15;;;;;;;;;;4989470;28;20180;-75
2022/01/06 04:27:19;;;;;;;10.85;3.05;;;;;;;;;;4995405;28;20046;-77
2022/01/06 04:29:45;;;;;;;18.85;3.67;;;;;;;;;;4977476;28;20050;-77
2022/01/06 04:32:12;;;;;;;14.27;3.20;;;;;;;;;;4960304;28;20042;-75
2022/01/06 04:34:38;;;;;;;19.98;3.30;;;;;;;;;;4977361;28;20050;-76
2022/01/06 04:37:04;;;;;;;15.68;3.38;;;;;;;;;;4957953;28;20086;-76
2022/01/06 04:39:30;;;;;;;14.02;3.95;;;;;;;;;;4990224;28;20116;-76
2022/01/06 04:41:56;;;;;;;13.25;3.83;;;;;;;;;;4973569;28;20050;-76
2022/01/06 04:44:22;;;;;;;13.00;3.28;;;;;;;;;;4989401;28;20045;-76
2022/01/06 04:46:48;;;;;;;17.15;3.50;;;;;;;;;;4973190;28;20065;-78
2022/01/06 04:49:14;;;;;;;11.52;3.17;;;;;;;;;;4957416;28;20069;-75
2022/01/06 04:51:40;;;;;;;12.82;3.10;;;;;;;;;;4989875;28;20117;-76
2022/01/06 04:54:07;;;;;;;18.05;3.70;;;;;;;;;;4959584;28;20125;-75
2022/01/06 04:56:36;;;;;;;11.25;3.28;;;;;;;;;;4990122;28;20054;-76
2022/01/06 04:59:07;;;;;;;12.02;3.35;;;;;;;;;;4977886;28;20474;-75
2022/01/06 05:01:33;;;;;;;15.00;3.70;;;;;;;;;;4993711;28;20082;-75
2022/01/06 05:04:00;;;;;;;14.00;3.17;;;;;;;;;;4987702;28;20130;-76
2022/01/06 05:06:26;;;;;;;17.85;3.83;;;;;;;;;;4966976;28;20057;-76
2022/01/06 05:08:52;;;;;;;13.85;3.65;;;;;;;;;;4993798;28;20057;-77
2022/01/06 05:11:19;;;;;;;14.55;3.28;;;;;;;;;;4989784;28;20402;-76
2022/01/06 05:13:45;;;;;;;18.77;4.57;;;;;;;;;;4990427;28;20463;-76
2022/01/06 05:16:11;;;;;;;17.50;3.70;;;;;;;;;;4975415;28;20403;-76
2022/01/06 05:18:38;;;;;;;17.55;4.03;;;;;;;;;;4974594;28;20059;-75
2022/01/06 05:21:07;;;;;;;13.43;3.92;;;;;;;;;;4958406;28;20137;-77
2022/01/06 05:23:33;;;;;;;20.25;3.70;;;;;;;;;;4991129;28;20042;-76
2022/01/06 05:25:59;;;;;;;14.18;4.15;;;;;;;;;;4973685;28;20058;-76
2022/01/06 05:28:26;;;;;;;19.65;3.63;;;;;;;;;;4973229;28;20255;-77
2022/01/06 05:30:52;;;;;;;19.45;3.80;;;;;;;;;;4975442;28;20034;-75
2022/01/06 05:33:18;;;;;;;19.50;4.47;;;;;;;;;;4958502;28;20047;-76
2022/01/06 05:35:44;;;;;;;19.42;3.42;;;;;;;;;;4973914;28;20149;-77
2022/01/06 05:38:10;;;;;;;21.70;4.00;;;;;;;;;;4990232;28;20129;-76
2022/01/06 05:40:37;;;;;;;13.13;3.53;;;;;;;;;;4990428;28;20050;-76
2022/01/06 05:43:03;;;;;;;13.77;3.67;;;;;;;;;;4957892;28;20043;-75
2022/01/06 05:45:29;;;;;;;13.55;3.42;;;;;;;;;;4957382;28;20054;-78
2022/01/06 05:47:55;;;;;;;13.43;3.13;;;;;;;;;;4988930;28;20042;-76
2022/01/06 05:50:21;;;;;;;19.00;3.90;;;;;;;;;;4974678;28;20050;-77
2022/01/06 05:52:48;;;;;;;19.08;3.83;;;;;;;;;;4989196;28;20468;-76
2022/01/06 05:55:17;;;;;;;11.63;3.30;;;;;;;;;;4973215;28;20046;-76
2022/01/06 05:57:43;;;;;;;15.98;3.50;;;;;;;;;;4989591;28;20125;-76
2022/01/06 06:00:10;;;;;;;15.25;3.58;;;;;;;;;;4992551;28;20046;-77
2022/01/06 06:02:36;;;;;;;15.30;3.80;;;;;;;;;;4957627;28;20089;-75
2022/01/06 06:05:02;;;;;;;11.88;3.58;;;;;;;;;;4990297;28;20046;-77
2022/01/06 06:07:28;;;;;;;14.68;3.83;;;;;;;;;;4988731;28;20047;-77
2022/01/06 06:09:54;;;;;;;15.73;4.22;;;;;;;;;;4990662;28;20471;-77
2022/01/06 06:12:21;;;;;;;18.10;4.32;;;;;;;;;;4988569;28;20047;-76
2022/01/06 06:14:47;;;;;;;16.10;3.50;;;;;;;;;;4973006;28;20042;-78
2022/01/06 06:17:13;;;;;;;15.40;3.97;;;;;;;;;;4955080;28;20203;-77
2022/01/06 06:19:39;;;;;;;17.88;4.38;;;;;;;;;;4987518;28;20050;-76
2022/01/06 06:22:05;;;;;;;16.42;3.60;;;;;;;;;;4988459;28;20047;-76
2022/01/06 06:24:33;;;;;;;21.08;3.53;;;;;;;;;;4972012;28;20117;-77
2022/01/06 06:26:59;;;;;;;16.95;3.72;;;;;;;;;;4955735;28;20058;-77
2022/01/06 06:29:25;;;;;;;14.95;3.85;;;;;;;;;;4975208;28;20034;-77
2022/01/06 06:31:51;;;;;;;17.10;3.97;;;;;;;;;;4991793;28;20377;-78
2022/01/06 06:34:17;;;;;;;16.60;5.07;;;;;;;;;;4978865;28;20061;-76
2022/01/06 06:36:43;;;;;;;19.02;4.50;;;;;;;;;;5004818;28;20050;-78
2022/01/06 06:39:09;;;;;;;25.60;5.38;;;;;;;;;;4961940;28;20470;-78
2022/01/06 06:41:35;;;;;;;16.25;4.35;;;;;;;;;;4993167;28;20042;-76
2022/01/06 06:44:02;;;;;;;18.77;4.55;;;;;;;;;;4994791;28;20435;-77
2022/01/06 06:46:28;;;;;;;17.20;4.15;;;;;;;;;;4971454;28;20100;-79
2022/01/06 06:48:54;;;;;;;19.27;4.00;;;;;;;;;;4978499;28;20038;-77
2022/01/06 06:51:20;;;;;;;15.10;4.15;;;;;;;;;;4964357;28;20084;-74
2022/01/06 06:53:46;;;;;;;13.35;3.53;;;;;;;;;;5004852;28;20045;-77
2022/01/06 06:56:12;;;;;;;23.42;5.45;;;;;;;;;;4976114;28;20039;-76
2022/01/06 06:58:38;;;;;;;19.48;4.32;;;;;;;;;;4982916;28;20077;-78
2022/01/06 07:01:04;;;;;;;18.45;4.28;;;;;;;;;;4961403;28;20054;-77
2022/01/06 07:03:30;;;;;;;13.90;4.35;;;;;;;;;;4961086;28;20047;-78
2022/01/06 07:05:56;;;;;;;16.15;4.10;;;;;;;;;;4960789;28;20057;-76
2022/01/06 07:08:22;;;;;;;21.02;4.45;;;;;;;;;;4960878;28;20050;-78
2022/01/06 07:10:48;;;;;;;17.23;4.57;;;;;;;;;;4960694;28;20046;-77
2022/01/06 07:13:18;;;;;;;17.98;4.00;;;;;;;;;;4960194;28;20101;-77
2022/01/06 07:15:45;;;;;;;16.70;4.55;;;;;;;;;;4944510;28;20054;-78
2022/01/06 07:18:11;;;;;;;15.77;4.78;;;;;;;;;;4960644;28;20050;-78
2022/01/06 07:20:37;;;;;;;25.27;5.88;;;;;;;;;;4960905;28;20046;-77
2022/01/06 07:23:04;;;;;;;16.75;5.03;;;;;;;;;;4999395;28;20043;-78
2022/01/06 07:25:30;;;;;;;17.58;4.85;;;;;;;;;;4992276;28;20062;-78
2022/01/06 07:27:57;;;;;;;18.55;5.38;;;;;;;;;;4975936;28;20054;-78
2022/01/06 07:30:23;;;;;;;18.90;4.82;;;;;;;;;;4961103;28;20156;-78
2022/01/06 07:32:50;;;;;;;17.30;4.25;;;;;;;;;;4959768;28;20043;-78
2022/01/06 07:35:18;;;;;;;14.30;4.35;;;;;;;;;;4997211;28;20058;-77
2022/01/06 07:37:44;;;;;;;14.90;4.30;;;;;;;;;;4963471;28;20058;-77
2022/01/06 07:40:12;;;;;;;15.23;4.75;;;;;;;;;;4978650;28;20058;-77
2022/01/06 07:42:38;;;;;;;17.75;4.10;;;;;;;;;;4996609;28;20054;-77
2022/01/06 07:45:04;;;;;;;19.52;4.22;;;;;;;;;;4996171;28;20054;-76
2022/01/06 07:47:33;;;;;;;19.42;3.90;;;;;;;;;;4980008;28;20086;-78
2022/01/06 07:50:00;;;;;;;20.00;4.05;;;;;;;;;;4980251;28;20148;-77
2022/01/06 07:52:26;;;;;;;17.83;3.80;;;;;;;;;;4977510;28;20053;-78
2022/01/06 07:54:52;;;;;;;18.42;3.75;;;;;;;;;;5008522;28;20046;-77
2022/01/06 07:57:18;;;;;;;17.50;3.83;;;;;;;;;;4992858;28;20111;-79
2022/01/06 07:59:44;;;;;;;16.08;4.00;;;;;;;;;;4979195;28;20477;-77
2022/01/06 08:02:14;;;;;;;16.67;4.65;;;;;;;;;;4979556;28;20057;-83
2022/01/06 08:04:43;;;;;;;18.70;4.85;;;;;;;;;;4979702;28;20174;-80
2022/01/06 08:07:09;;;;;;;18.25;4.05;;;;;;;;;;4974603;28;20170;-76
2022/01/06 08:09:35;;;;;;;17.85;4.13;;;;;;;;;;4978136;28;20042;-75
2022/01/06 08:12:02;;;;;;;12.07;3.92;;;;;;;;;;4979010;28;20078;-74
2022/01/06 08:14:29;;;;;;;16.13;4.00;;;;;;;;;;4995986;28;20065;-74
2022/01/06 08:16:57;;;;;;;12.25;3.67;;;;;;;;;;4979052;28;20131;-75
2022/01/06 08:19:24;;;;;;;10.45;3.45;;;;;;;;;;4996633;28;20069;-76
2022/01/06 08:21:51;;;;;;;13.95;3.85;;;;;;;;;;4978663;28;20065;-75
2022/01/06 08:24:17;;;;;;;11.77;3.30;;;;;;;;;;4979058;28;20042;-76
2022/01/06 08:26:43;;;;;;;10.98;4.18;;;;;;;;;;4978571;28;20050;-77
2022/01/06 08:29:09;;;;;;;15.95;3.78;;;;;;;;;;4978325;28;20108;-78
2022/01/06 08:31:35;;;;;;;16.42;3.63;;;;;;;;;;4978592;28;20050;-76
2022/01/06 08:34:01;;;;;;;11.27;3.80;;;;;;;;;;4979186;28;20046;-77
2022/01/06 08:36:30;;;;;;;12.70;4.07;;;;;;;;;;4978470;28;20494;-75
2022/01/06 08:38:56;;;;;;;13.48;4.75;;;;;;;;;;4978410;28;20054;-74
2022/01/06 08:41:22;;;;;;;12.23;4.70;;;;;;;;;;4993392;28;20125;-75
2022/01/06 08:43:48;;;;;;;15.02;3.42;;;;;;;;;;5015977;28;20129;-76
2022/01/06 08:46:14;;;;;;;8.85;3.25;;;;;;;;;;4981007;28;20045;-75
2022/01/06 08:48:40;;;;;;;14.32;3.72;;;;;;;;;;4990086;28;20126;-74
2022/01/06 08:51:07;;;;;;;9.60;3.50;;;;;;;;;;4994514;28;20050;-76
2022/01/06 08:53:33;;;;;;;13.15;4.18;;;;;;;;;;4974340;28;20066;-75
2022/01/06 08:55:59;;;;;;;10.00;3.70;;;;;;;;;;4986178;28;20042;-80
2022/01/06 08:58:25;;;;;;;8.80;3.50;;;;;;;;;;5014420;28;20382;-78
2022/01/06 09:00:51;;;;;;;10.82;3.92;;;;;;;;;;5014351;28;20092;-75
2022/01/06 09:03:17;;;;;;;13.77;3.72;;;;;;;;;;4978042;28;20064;-75
2022/01/06 09:05:43;;;;;;;16.45;3.92;;;;;;;;;;4972070;28;20185;-76
2022/01/06 09:08:09;;;;;;;9.82;3.22;;;;;;;;;;4957184;28;20058;-77
2022/01/06 09:10:36;;;;;;;15.65;3.90;;;;;;;;;;4984161;28;20070;-74
2022/01/06 09:13:02;;;;;;;9.15;3.30;;;;;;;;;;4984978;28;20051;-74
2022/01/06 09:15:28;;;;;;;11.73;4.10;;;;;;;;;;4978744;28;20061;-76
2022/01/06 09:17:54;;;;;;;14.35;4.22;;;;;;;;;;4974425;28;20050;-76
2022/01/06 09:20:20;;;;;;;6.25;3.55;;;;;;;;;;5012208;28;20078;-76
2022/01/06 09:22:47;;;;;;;13.65;3.83;;;;;;;;;;5003978;28;20064;-76
2022/01/06 09:25:14;;;;;;;11.68;4.47;;;;;;;;;;4994873;28;20205;-75
2022/01/06 09:27:40;;;;;;;14.43;5.05;;;;;;;;;;4995295;28;20054;-75
2022/01/06 09:30:07;;;;;;;14.23;4.85;;;;;;;;;;4985903;28;20082;-76
2022/01/06 09:32:33;;;;;;;10.57;4.55;;;;;;;;;;4990281;28;20042;-74
2022/01/06 09:35:00;;;;;;;12.18;3.42;;;;;;;;;;4977208;28;20434;-76
2022/01/06 09:37:26;;;;;;;13.45;3.45;;;;;;;;;;4958639;28;20063;-73
2022/01/06 09:39:52;;;;;;;11.75;3.35;;;;;;;;;;4994153;28;20039;-74
2022/01/06 09:42:19;;;;;;;8.77;3.25;;;;;;;;;;5000094;28;20045;-78
2022/01/06 09:44:48;;;;;;;17.35;3.97;;;;;;;;;;4997751;28;20081;-74
2022/01/06 09:47:14;;;;;;;12.20;3.97;;;;;;;;;;5014823;28;20049;-71
2022/01/06 09:49:44;;;;;;;11.02;4.47;;;;;;;;;;5012279;28;20060;-76
2022/01/06 09:52:10;;;;;;;12.88;3.83;;;;;;;;;;4978614;28;20054;-76
2022/01/06 09:54:37;;;;;;;12.95;3.53;;;;;;;;;;4995423;28;20366;-78
2022/01/06 09:57:03;;;;;;;15.40;3.67;;;;;;;;;;4978748;28;20046;-77
2022/01/06 09:59:30;;;;;;;10.23;3.35;;;;;;;;;;4978109;28;20494;-77
2022/01/06 10:01:56;;;;;;;13.77;3.72;;;;;;;;;;4985161;28;20047;-75
2022/01/06 10:04:30;;;;;;;9.05;3.22;;;;;;;;;;4989006;28;20054;-75
2022/01/06 10:07:02;;;;;;;13.07;3.40;;;;;;;;;;4996482;28;20481;-75
2022/01/06 10:09:29;;;;;;;11.20;2.85;;;;;;;;;;4998688;28;20370;-74
2022/01/06 10:11:56;;;;;;;11.70;3.30;;;;;;;;;;5014040;28;20054;-74
2022/01/06 10:14:31;;;;;;;12.95;4.00;;;;;;;;;;5004580;28;20131;-74
2022/01/06 10:16:57;;;;;;;18.40;4.22;;;;;;;;;;4992204;28;20053;-75
2022/01/06 10:19:24;;;;;;;18.55;4.18;;;;;;;;;;4996916;28;20050;-76
2022/01/06 10:21:56;;;;;;;12.25;3.83;;;;;;;;;;4993514;28;20043;-74
2022/01/06 10:24:23;;;;;;;14.25;3.28;;;;;;;;;;4987224;28;20115;-76
2022/01/06 10:26:55;;;;;;;9.15;3.53;;;;;;;;;;4967406;28;20050;-75
2022/01/06 10:29:22;;;;;;;8.32;3.38;;;;;;;;;;4995510;28;20054;-76
2022/01/06 10:31:48;;;;;;;16.83;4.32;;;;;;;;;;4999680;28;20488;-76
2022/01/06 10:34:14;;;;;;;13.70;4.28;;;;;;;;;;4998087;28;20046;-75
2022/01/06 10:36:41;;;;;;;14.80;4.07;;;;;;;;;;4998290;28;20055;-78
2022/01/06 10:39:08;;;;;;;9.20;3.40;;;;;;;;;;4997718;28;20108;-71
2022/01/06 10:41:35;;;;;;;12.18;4.50;;;;;;;;;;4989082;28;20410;-82
2022/01/06 10:44:02;;;;;;;10.40;3.78;;;;;;;;;;4980143;28;20042;-74
2022/01/06 10:46:31;;;;;;;11.43;3.50;;;;;;;;;;4980547;28;20136;-77
2022/01/06 10:48:58;;;;;;;12.18;4.32;;;;;;;;;;4979421;28;20049;-76
2022/01/06 10:51:41;;;;;;;13.98;4.05;;;;;;;;;;4992597;28;20054;-76
2022/01/06 10:54:13;;;;;;;15.35;4.13;;;;;;;;;;5024831;28;21749;-75
2022/01/06 10:56:40;;;;;;;14.55;4.22;;;;;;;;;;4989182;28;20567;-75
2022/01/06 10:59:06;;;;;;;12.27;3.97;;;;;;;;;;4992972;28;20046;-75
2022/01/06 11:01:33;;;;;;;11.93;3.67;;;;;;;;;;4989746;28;20038;-78
2022/01/06 11:03:59;;;;;;;12.13;4.18;;;;;;;;;;4991039;28;20117;-77
2022/01/06 11:06:25;;;;;;;12.02;3.90;;;;;;;;;;4991009;28;20367;-75
2022/01/06 11:08:52;;;;;;;10.10;3.70;;;;;;;;;;4977623;28;20051;-76
2022/01/06 11:14:09;;;;;;;13.93;4.40;;;;;;;;;;4956401;28;20094;-77
2022/01/06 11:16:35;;;;;;;11.18;3.90;;;;;;;;;;4994443;28;20263;-75
2022/01/06 11:19:01;;;;;;;13.23;4.25;;;;;;;;;;4961123;28;20051;-75
2022/01/06 11:21:40;;;;;;;16.27;4.00;;;;;;;;;;4958739;28;20051;-78
2022/01/06 11:24:14;;;;;;;22.17;4.40;;;;;;;;;;4980367;28;20435;-77
2022/01/06 11:26:41;;;;;;;15.40;3.47;;;;;;;;;;4986020;28;20128;-78
2022/01/06 11:29:07;;;;;;;11.80;3.83;;;;;;;;;;4980608;28;20046;-77
2022/01/06 11:31:43;;;;;;;14.88;4.13;;;;;;;;;;4986962;28;21665;-74
2022/01/06 11:34:13;;;;;;;16.52;4.32;;;;;;;;;;4985690;28;20125;-74
2022/01/06 11:36:39;;;;;;;19.52;4.72;;;;;;;;;;5011182;28;20157;-78
2022/01/06 11:39:07;;;;;;;11.07;3.63;;;;;;;;;;4996629;28;20057;-75
2022/01/06 11:41:35;;;;;;;12.93;3.33;;;;;;;;;;4979252;28;20112;-75
2022/01/06 11:44:02;;;;;;;12.07;3.15;;;;;;;;;;4977697;28;20046;-74
2022/01/06 11:46:28;;;;;;;13.00;3.40;;;;;;;;;;4972998;28;20054;-75
2022/01/06 11:48:57;;;;;;;17.05;3.53;;;;;;;;;;4998177;28;20061;-77
2022/01/06 11:51:30;;;;;;;13.15;3.90;;;;;;;;;;4999143;28;20056;-74
2022/01/06 11:53:57;;;;;;;15.48;4.45;;;;;;;;;;4989376;28;20054;-74
2022/01/06 11:56:24;;;;;;;19.13;5.03;;;;;;;;;;4990647;28;20449;-76
2022/01/06 11:58:59;;;;;;;12.13;4.30;;;;;;;;;;4993458;28;20065;-75
2022/01/06 12:01:25;;;;;;;14.10;4.70;;;;;;;;;;4990741;28;20118;-76
2022/01/06 12:03:51;;;;;;;11.05;4.80;;;;;;;;;;4994961;28;20129;-77
2022/01/06 12:06:26;;;;;;;11.25;4.07;;;;;;;;;;4979941;28;20042;-76
2022/01/06 12:08:53;;;;;;;11.85;3.75;;;;;;;;;;4982373;28;20348;-74
2022/01/06 12:11:26;;;;;;;9.70;3.25;;;;;;;;;;4991580;28;20046;-75
2022/01/06 12:13:53;;;;;;;11.05;3.30;;;;;;;;;;4978133;28;20061;-73
2022/01/06 12:16:23;;;;;;;13.07;3.35;;;;;;;;;;4984353;28;20046;-74
2022/01/06 12:18:49;;;;;;;13.98;3.42;;;;;;;;;;4987973;28;20700;-74
2022/01/06 12:21:16;;;;;;;10.90;3.60;;;;;;;;;;5010759;28;20054;-76
2022/01/06 12:23:42;;;;;;;14.00;3.47;;;;;;;;;;5003755;28;20066;-75
2022/01/06 12:26:09;;;;;;;13.15;3.40;;;;;;;;;;4975709;28;20054;-74
2022/01/06 12:28:44;;;;;;;17.17;3.75;;;;;;;;;;4993585;28;20118;-75
2022/01/06 12:31:12;;;;;;;13.30;3.73;;;;;;;;;;5006054;28;20046;-75
2022/01/06 12:33:47;;;;;;;12.02;3.25;;;;;;;;;;4978070;28;20058;-74
2022/01/06 12:36:16;;;;;;;12.23;3.95;;;;;;;;;;5023604;28;20089;-75
2022/01/06 12:38:42;;;;;;;13.50;3.30;;;;;;;;;;4994932;28;20061;-76
2022/01/06 12:41:08;;;;;;;16.90;3.25;;;;;;;;;;4975920;28;20455;-76
2022/01/06 12:43:36;;;;;;;11.60;3.47;;;;;;;;;;4977756;28;20050;-73
2022/01/06 12:46:06;;;;;;;14.75;3.75;;;;;;;;;;4986638;28;20058;-74
2022/01/06 12:48:38;;;;;;;13.63;3.08;;;;;;;;;;5006675;28;20121;-75
2022/01/06 12:51:04;;;;;;;12.40;3.25;;;;;;;;;;4980997;28;20099;-74
2022/01/06 12:53:35;;;;;;;10.40;3.65;;;;;;;;;;4981694;28;20072;-76
2022/01/06 12:56:02;;;;;;;11.02;3.45;;;;;;;;;;4970914;28;20047;-76
2022/01/06 12:58:29;;;;;;;10.75;3.03;;;;;;;;;;4987344;28;20117;-75
2022/01/06 13:01:05;;;;;;;12.15;3.15;;;;;;;;;;4991501;28;20081;-75
2022/01/06 13:03:33;;;;;;;15.35;3.40;;;;;;;;;;4978530;28;20538;-76
2022/01/06 13:05:59;;;;;;;10.40;3.35;;;;;;;;;;4989541;28;20129;-75
2022/01/06 13:08:25;;;;;;;12.90;5.05;;;;;;;;;;4975890;28;20384;-76
2022/01/06 13:11:05;;;;;;;9.70;3.92;;;;;;;;;;4971202;28;20117;-75
2022/01/06 13:13:32;;;;;;;13.00;3.70;;;;;;;;;;5005520;28;20451;-74
2022/01/06 13:15:58;;;;;;;11.85;3.72;;;;;;;;;;4977746;28;20042;-75
2022/01/06 13:18:24;;;;;;;8.30;2.55;;;;;;;;;;4991708;28;20175;-74
2022/01/06 13:20:56;;;;;;;10.85;2.88;;;;;;;;;;4978260;28;20050;-78
2022/01/06 13:26:07;;;;;;;7.75;2.80;;;;;;;;;;4964215;28;20171;-76
2022/01/06 13:28:34;;;;;;;7.15;2.75;;;;;;;;;;4958272;28;20050;-75
2022/01/06 13:31:00;;;;;;;9.95;2.78;;;;;;;;;;4976653;28;20136;-75
2022/01/06 13:33:33;;;;;;;8.45;2.90;;;;;;;;;;4971227;28;20540;-75
2022/01/06 13:36:04;;;;;;;8.23;2.65;;;;;;;;;;4986596;28;20069;-76
2022/01/06 13:38:35;;;;;;;9.10;2.90;;;;;;;;;;5001829;28;20088;-76
2022/01/06 13:41:03;;;;;;;7.40;2.97;;;;;;;;;;4979213;28;20053;-74
2022/01/06 13:43:31;;;;;;;8.25;2.65;;;;;;;;;;4979405;28;20053;-76
2022/01/06 13:46:13;;;;;;;8.98;2.83;;;;;;;;;;4984013;28;20053;-75
2022/01/06 13:48:47;;;;;;;8.20;2.58;;;;;;;;;;4970595;28;20182;-77
2022/01/06 13:51:17;;;;;;;6.15;2.50;;;;;;;;;;5000013;28;20050;-73
2022/01/06 13:53:46;;;;;;;7.13;2.40;;;;;;;;;;4977407;28;20061;-73
2022/01/06 13:56:12;;;;;;;12.90;2.65;;;;;;;;;;4974511;28;20367;-75
2022/01/06 13:58:40;;;;;;;13.43;2.58;;;;;;;;;;4989459;28;20108;-74
2022/01/06 14:01:06;;;;;;;8.55;2.33;;;;;;;;;;4981033;28;20058;-74
2022/01/06 14:03:34;;;;;;;11.80;3.72;;;;;;;;;;4981665;28;20490;-80
2022/01/06 14:06:04;;;;;;;7.93;2.75;;;;;;;;;;5002669;28;20050;-77
2022/01/06 14:08:30;;;;;;;10.73;2.97;;;;;;;;;;4980144;28;20042;-76
2022/01/06 14:10:56;;;;;;;10.68;3.70;;;;;;;;;;4956416;28;20094;-78
2022/01/06 14:13:23;;;;;;;6.05;2.92;;;;;;;;;;4958365;28;20395;-75
2022/01/06 14:15:49;;;;;;;12.02;3.45;;;;;;;;;;4969455;28;20065;-75
2022/01/06 14:18:15;;;;;;;8.13;2.80;;;;;;;;;;4969748;28;20058;-76
2022/01/06 14:20:42;;;;;;;8.35;2.70;;;;;;;;;;5009499;28;20107;-75
2022/01/06 14:23:08;;;;;;;11.52;2.60;;;;;;;;;;4990404;28;20061;-75
2022/01/06 14:25:34;;;;;;;8.85;3.05;;;;;;;;;;4960998;28;20447;-75
2022/01/06 14:28:00;;;;;;;13.10;2.80;;;;;;;;;;4985084;28;20038;-77
2022/01/06 14:30:26;;;;;;;10.65;2.33;;;;;;;;;;4976732;28;20068;-75
2022/01/06 14:32:52;;;;;;;7.40;2.47;;;;;;;;;;4972526;28;20050;-74
2022/01/06 14:35:19;;;;;;;5.57;2.17;;;;;;;;;;4977455;28;20062;-74
2022/01/06 14:37:45;;;;;;;8.63;2.15;;;;;;;;;;4977252;28;20067;-75
2022/01/06 14:40:12;;;;;;;7.90;2.47;;;;;;;;;;4977467;28;20046;-75
2022/01/06 14:42:38;;;;;;;9.13;2.60;;;;;;;;;;4977014;28;20050;-75
2022/01/06 14:45:04;;;;;;;8.68;2.58;;;;;;;;;;4994406;28;20042;-75
2022/01/06 14:47:30;;;;;;;7.80;2.30;;;;;;;;;;4961223;28;20059;-74